createdAt,value
2017-05-03T00:00:33.225Z,8.61
2017-05-03T00:01:13.621Z,8.57
2017-05-03T00:01:54.016Z,8.53
2017-05-03T00:02:34.405Z,8.57
2017-05-03T00:03:14.891Z,8.54
2017-05-03T00:03:55.348Z,8.57
2017-05-03T00:04:35.738Z,8.56
2017-05-03T00:05:16.149Z,8.49
2017-05-03T00:05:56.544Z,8.52
2017-05-03T00:06:36.964Z,8.44
2017-05-03T00:07:17.332Z,8.53
2017-05-03T00:07:57.786Z,8.54
2017-05-03T00:08:38.176Z,8.57
2017-05-03T00:09:18.605Z,8.5
2017-05-03T00:09:58.983Z,8.52
2017-05-03T00:10:39.430Z,8.53
2017-05-03T00:11:19.828Z,8.52
2017-05-03T00:12:00.252Z,8.49
2017-05-03T00:12:40.668Z,8.57
2017-05-03T00:13:21.066Z,8.5
2017-05-03T00:14:01.484Z,8.49
2017-05-03T00:14:41.846Z,8.52
2017-05-03T00:15:22.314Z,8.42
2017-05-03T00:16:02.701Z,8.46
2017-05-03T00:16:43.174Z,8.52
2017-05-03T00:17:23.588Z,8.5
2017-05-03T00:18:03.945Z,8.5
2017-05-03T00:18:44.439Z,8.44
2017-05-03T00:19:24.804Z,8.49
2017-05-03T00:20:05.159Z,8.5
2017-05-03T00:20:45.577Z,8.5
2017-05-03T00:21:25.964Z,8.39
2017-05-03T00:22:06.417Z,8.39
2017-05-03T00:22:46.808Z,8.49
2017-05-03T00:23:27.218Z,8.39
2017-05-03T00:24:07.628Z,8.41
2017-05-03T00:24:48.071Z,8.35
2017-05-03T00:25:28.480Z,8.41
2017-05-03T00:26:08.897Z,8.41
2017-05-03T00:26:49.348Z,8.38
2017-05-03T00:27:29.761Z,8.41
2017-05-03T00:28:10.124Z,8.35
2017-05-03T00:28:50.564Z,8.35
2017-05-03T00:29:30.955Z,8.32
2017-05-03T00:30:11.393Z,8.35
2017-05-03T00:30:51.779Z,8.35
2017-05-03T00:31:32.188Z,8.38
2017-05-03T00:32:12.617Z,8.34
2017-05-03T00:32:53.071Z,8.36
2017-05-03T00:33:33.431Z,8.27
2017-05-03T00:34:13.936Z,8.38
2017-05-03T00:34:54.324Z,8.32
2017-05-03T00:35:34.744Z,8.38
2017-05-03T00:36:15.122Z,8.28
2017-05-03T00:36:55.548Z,8.34
2017-05-03T00:37:35.957Z,8.32
2017-05-03T00:38:16.325Z,8.28
2017-05-03T00:38:56.719Z,8.35
2017-05-03T00:39:37.199Z,8.35
2017-05-03T00:40:17.691Z,8.35
2017-05-03T00:40:58.024Z,8.32
2017-05-03T00:41:38.461Z,8.34
2017-05-03T00:42:18.882Z,8.32
2017-05-03T00:42:59.305Z,8.28
2017-05-03T00:43:39.746Z,8.31
2017-05-03T00:44:20.239Z,8.32
2017-05-03T00:45:00.681Z,8.27
2017-05-03T00:45:41.047Z,8.24
2017-05-03T00:46:21.493Z,8.21
2017-05-03T00:47:01.909Z,8.24
2017-05-03T00:47:42.328Z,8.26
2017-05-03T00:48:22.677Z,8.17
2017-05-03T00:49:03.132Z,8.2
2017-05-03T00:49:44.477Z,8.08
2017-05-03T00:50:26.364Z,8.21
2017-05-03T00:51:07.804Z,8.09
2017-05-03T00:51:48.192Z,8.18
2017-05-03T00:52:28.599Z,8.14
2017-05-03T00:53:09.034Z,8.13
2017-05-03T00:53:49.412Z,8.16
2017-05-03T00:54:29.815Z,8.14
2017-05-03T00:55:10.228Z,8.11
2017-05-03T00:55:52.214Z,8.06
2017-05-03T00:56:32.572Z,8.03
2017-05-03T00:57:13.692Z,8.03
2017-05-03T00:57:54.877Z,8.03
2017-05-03T00:58:37.950Z,7.96
2017-05-03T00:59:18.356Z,7.99
2017-05-03T00:59:58.762Z,8.01
2017-05-03T01:00:39.185Z,7.91
2017-05-03T01:01:19.615Z,7.91
2017-05-03T01:02:01.658Z,7.96
2017-05-03T01:02:42.093Z,7.85
2017-05-03T01:03:22.480Z,7.81
2017-05-03T01:04:02.975Z,7.83
2017-05-03T01:04:43.404Z,7.78
2017-05-03T01:05:23.780Z,7.69
2017-05-03T01:09:38.102Z,7.58
2017-05-03T01:10:26.557Z,7.55
2017-05-03T01:11:14.763Z,7.48
2017-05-03T01:12:03.170Z,7.43
2017-05-03T01:12:51.853Z,7.48
2017-05-03T01:13:40.196Z,7.44
2017-05-03T01:16:15.326Z,7.41
2017-05-03T01:17:03.724Z,7.47
2017-05-03T01:17:52.247Z,7.36
2017-05-03T01:18:40.774Z,7.4
2017-05-03T01:19:29.539Z,7.29
2017-05-03T01:20:17.993Z,7.29
2017-05-03T01:21:05.030Z,7.32
2017-05-03T01:21:53.492Z,7.22
2017-05-03T01:22:42.234Z,7.25
2017-05-03T01:23:30.695Z,7.25
2017-05-03T01:24:18.951Z,7.22
2017-05-03T01:25:07.562Z,7.15
2017-05-03T01:25:56.190Z,7.1
2017-05-03T01:26:44.807Z,7.1
2017-05-03T01:27:33.365Z,7.01
2017-05-03T01:28:22.264Z,7.04
2017-05-03T01:29:10.704Z,7.07
2017-05-03T01:29:59.012Z,6.96
2017-05-03T01:30:47.458Z,6.96
2017-05-03T01:31:35.909Z,6.87
2017-05-03T01:32:24.636Z,6.92
2017-05-03T01:33:11.008Z,6.78
2017-05-03T01:33:51.416Z,6.77
2017-05-03T01:34:31.795Z,6.77
2017-05-03T01:35:12.241Z,6.78
2017-05-03T01:35:52.632Z,6.75
2017-05-03T01:36:33.052Z,6.68
2017-05-03T01:37:13.472Z,6.6
2017-05-03T01:37:53.858Z,6.59
2017-05-03T01:38:34.232Z,6.64
2017-05-03T01:39:14.657Z,6.65
2017-05-03T01:39:55.011Z,6.6
2017-05-03T01:40:35.398Z,6.59
2017-05-03T01:41:15.822Z,6.65
2017-05-03T01:41:56.234Z,6.68
2017-05-03T01:42:36.616Z,6.67
2017-05-03T01:43:17.025Z,6.7
2017-05-03T01:43:57.407Z,6.71
2017-05-03T01:44:39.448Z,6.78
2017-05-03T01:45:19.810Z,6.75
2017-05-03T01:46:00.278Z,6.68
2017-05-03T01:47:54.980Z,6.74
2017-05-03T01:48:43.381Z,6.74
2017-05-03T01:49:32.602Z,6.8
2017-05-03T01:50:20.755Z,6.7
2017-05-03T01:51:09.430Z,6.75
2017-05-03T01:51:57.731Z,6.8
2017-05-03T01:52:46.240Z,6.75
2017-05-03T01:53:35.056Z,6.87
2017-05-03T01:54:23.568Z,6.86
2017-05-03T01:55:11.739Z,6.82
2017-05-03T01:56:00.390Z,6.87
2017-05-03T01:56:49.060Z,6.87
2017-05-03T01:57:37.739Z,6.85
2017-05-03T01:58:26.378Z,6.9
2017-05-03T01:59:12.581Z,6.87
2017-05-03T02:00:00.841Z,6.83
2017-05-03T02:00:49.626Z,6.85
2017-05-03T02:01:37.859Z,6.8
2017-05-03T02:02:26.340Z,6.9
2017-05-03T02:03:14.861Z,6.89
2017-05-03T02:04:03.333Z,6.87
2017-05-03T02:04:51.969Z,6.9
2017-05-03T02:05:41.052Z,6.97
2017-05-03T02:06:29.072Z,7
2017-05-03T02:07:18.093Z,7.03
2017-05-03T02:08:06.282Z,7.08
2017-05-03T02:08:54.606Z,7.05
2017-05-03T02:09:43.229Z,7.03
2017-05-03T02:10:24.587Z,7.1
2017-05-03T02:11:05.018Z,7.03
2017-05-03T02:11:45.451Z,7.07
2017-05-03T02:12:25.844Z,7.13
2017-05-03T02:13:06.309Z,7.18
2017-05-03T02:13:46.686Z,7.25
2017-05-03T02:14:27.150Z,7.21
2017-05-03T02:15:07.518Z,7.25
2017-05-03T02:15:47.932Z,7.26
2017-05-03T02:16:28.330Z,7.28
2017-05-03T02:17:08.764Z,7.32
2017-05-03T02:17:49.140Z,7.32
2017-05-03T02:18:29.559Z,7.29
2017-05-03T02:19:10.000Z,7.31
2017-05-03T02:19:50.343Z,7.4
2017-05-03T02:20:30.807Z,7.4
2017-05-03T02:21:11.209Z,7.41
2017-05-03T02:21:51.598Z,7.46
2017-05-03T02:22:32.046Z,7.37
2017-05-03T02:23:12.409Z,7.39
2017-05-03T02:23:52.830Z,7.4
2017-05-03T02:24:33.220Z,7.41
2017-05-03T02:25:13.653Z,7.39
2017-05-03T02:25:54.065Z,7.4
2017-05-03T02:26:34.511Z,7.41
2017-05-03T02:27:14.920Z,7.41
2017-05-03T02:27:55.281Z,7.46
2017-05-03T02:28:35.750Z,7.5
2017-05-03T02:29:16.171Z,7.41
2017-05-03T02:29:56.563Z,7.41
2017-05-03T02:30:36.995Z,7.43
2017-05-03T02:31:17.350Z,7.46
2017-05-03T02:31:57.792Z,7.41
2017-05-03T02:32:38.822Z,7.47
2017-05-03T02:33:19.228Z,7.48
2017-05-03T02:33:59.636Z,7.43
2017-05-03T02:34:40.024Z,7.43
2017-05-03T02:35:20.406Z,7.48
2017-05-03T02:36:00.826Z,7.5
2017-05-03T02:36:41.247Z,7.46
2017-05-03T02:37:21.670Z,7.46
2017-05-03T02:38:02.033Z,7.47
2017-05-03T02:38:42.437Z,7.48
2017-05-03T02:39:22.829Z,7.51
2017-05-03T02:40:03.231Z,7.47
2017-05-03T02:40:43.657Z,7.56
2017-05-03T02:41:24.029Z,7.53
2017-05-03T02:42:04.527Z,7.51
2017-05-03T02:42:44.930Z,7.47
2017-05-03T02:43:25.513Z,7.46
2017-05-03T02:44:05.920Z,7.53
2017-05-03T02:44:46.268Z,7.55
2017-05-03T02:45:26.737Z,7.64
2017-05-03T02:46:07.108Z,7.47
2017-05-03T02:46:47.553Z,7.47
2017-05-03T02:47:27.995Z,7.51
2017-05-03T02:48:08.389Z,7.58
2017-05-03T02:48:48.777Z,7.61
2017-05-03T02:49:29.200Z,7.56
2017-05-03T02:50:09.589Z,7.61
2017-05-03T02:50:50.037Z,7.61
2017-05-03T02:51:30.403Z,7.53
2017-05-03T02:52:10.871Z,7.61
2017-05-03T02:52:51.258Z,7.53
2017-05-03T02:53:31.633Z,7.69
2017-05-03T02:54:12.044Z,7.59
2017-05-03T02:54:52.455Z,7.55
2017-05-03T02:55:32.854Z,7.61
2017-05-03T02:56:13.248Z,7.59
2017-05-03T02:56:53.645Z,7.59
2017-05-03T02:57:34.099Z,7.58
2017-05-03T02:58:14.501Z,7.59
2017-05-03T02:58:54.953Z,7.64
2017-05-03T02:59:35.357Z,7.53
2017-05-03T03:00:15.760Z,7.61
2017-05-03T03:00:56.156Z,7.55
2017-05-03T03:01:36.601Z,7.62
2017-05-03T03:02:16.949Z,7.61
2017-05-03T03:02:57.437Z,7.59
2017-05-03T03:03:37.763Z,7.56
2017-05-03T03:04:18.131Z,7.59
2017-05-03T03:04:58.545Z,7.51
2017-05-03T03:05:38.977Z,7.48
2017-05-03T03:06:19.353Z,7.5
2017-05-03T03:06:59.820Z,7.55
2017-05-03T03:07:40.232Z,7.51
2017-05-03T03:08:20.645Z,7.5
2017-05-03T03:09:01.037Z,7.48
2017-05-03T03:09:41.409Z,7.51
2017-05-03T03:10:21.825Z,7.5
2017-05-03T03:11:02.265Z,7.47
2017-05-03T03:11:42.634Z,7.51
2017-05-03T03:12:23.074Z,7.5
2017-05-03T03:13:03.492Z,7.48
2017-05-03T03:13:43.924Z,7.47
2017-05-03T03:14:25.302Z,7.56
2017-05-03T03:15:05.663Z,7.43
2017-05-03T03:15:46.878Z,7.44
2017-05-03T03:16:27.236Z,7.44
2017-05-03T03:17:07.678Z,7.46
2017-05-03T03:17:48.114Z,7.43
2017-05-03T03:18:29.326Z,7.41
2017-05-03T03:19:09.817Z,7.41
2017-05-03T03:19:50.267Z,7.37
2017-05-03T03:20:31.557Z,7.39
2017-05-03T03:21:12.130Z,7.44
2017-05-03T03:21:53.989Z,7.4
2017-05-03T03:22:34.402Z,7.4
2017-05-03T03:23:14.810Z,7.43
2017-05-03T03:23:55.196Z,7.39
2017-05-03T03:24:35.621Z,7.4
2017-05-03T03:25:17.763Z,7.33
2017-05-03T03:25:58.161Z,7.4
2017-05-03T03:26:42.130Z,7.4
2017-05-03T03:27:23.306Z,7.4
2017-05-03T03:28:06.006Z,7.4
2017-05-03T03:28:46.488Z,7.32
2017-05-03T03:29:27.709Z,7.28
2017-05-03T03:30:08.659Z,7.39
2017-05-03T03:31:57.334Z,7.33
2017-05-03T03:32:45.634Z,7.25
2017-05-03T03:33:29.996Z,7.33
2017-05-03T03:34:10.385Z,7.31
2017-05-03T03:34:50.773Z,7.29
2017-05-03T03:35:32.861Z,7.33
2017-05-03T03:36:14.087Z,7.32
2017-05-03T03:36:55.908Z,7.33
2017-05-03T03:37:36.282Z,7.31
2017-05-03T03:38:16.697Z,7.33
2017-05-03T03:38:57.094Z,7.33
2017-05-03T03:39:37.522Z,7.33
2017-05-03T03:40:17.913Z,7.33
2017-05-03T03:41:00.850Z,7.32
2017-05-03T03:41:41.272Z,7.32
2017-05-03T03:42:23.540Z,7.31
2017-05-03T03:43:07.381Z,7.33
2017-05-03T03:43:47.825Z,7.29
2017-05-03T03:44:29.140Z,7.29
2017-05-03T03:45:10.505Z,7.36
2017-05-03T03:45:51.866Z,7.23
2017-05-03T03:46:32.999Z,7.32
2017-05-03T03:47:13.503Z,7.25
2017-05-03T03:47:53.911Z,7.22
2017-05-03T03:48:35.075Z,7.26
2017-05-03T03:49:16.006Z,7.31
2017-05-03T03:49:58.047Z,7.28
2017-05-03T03:50:40.058Z,7.22
2017-05-03T03:51:22.137Z,7.22
2017-05-03T03:52:25.201Z,7.28
2017-05-03T03:53:13.578Z,7.23
2017-05-03T03:53:53.998Z,7.26
2017-05-03T03:54:34.432Z,7.32
2017-05-03T03:55:14.861Z,7.28
2017-05-03T03:55:55.310Z,7.36
2017-05-03T03:56:37.507Z,7.39
2017-05-03T03:57:20.620Z,7.43
2017-05-03T03:58:01.113Z,7.36
2017-05-03T03:58:41.491Z,7.37
2017-05-03T03:59:23.556Z,7.36
2017-05-03T04:00:04.026Z,7.39
2017-05-03T04:00:44.446Z,7.43
2017-05-03T04:01:29.462Z,7.43
2017-05-03T04:02:13.494Z,7.43
2017-05-03T04:02:53.896Z,7.41
2017-05-03T04:03:34.360Z,7.41
2017-05-03T04:04:14.766Z,7.37
2017-05-03T04:04:55.181Z,7.41
2017-05-03T04:05:35.585Z,7.43
2017-05-03T04:06:17.894Z,7.37
2017-05-03T04:07:00.231Z,7.41
2017-05-03T04:07:40.615Z,7.37
2017-05-03T04:08:21.121Z,7.37
2017-05-03T04:09:01.496Z,7.33
2017-05-03T04:09:41.866Z,7.29
2017-05-03T04:10:24.022Z,7.31
2017-05-03T04:11:04.456Z,7.29
2017-05-03T04:11:44.840Z,7.31
2017-05-03T04:12:27.212Z,7.31
2017-05-03T04:13:10.284Z,7.33
2017-05-03T04:13:52.401Z,7.29
2017-05-03T04:14:34.602Z,7.31
2017-05-03T04:15:20.439Z,7.29
2017-05-03T04:16:00.872Z,7.29
2017-05-03T04:16:41.367Z,7.31
2017-05-03T04:17:26.668Z,7.28
2017-05-03T04:18:08.588Z,7.36
2017-05-03T04:18:49.025Z,7.33
2017-05-03T04:19:29.428Z,7.29
2017-05-03T04:20:09.825Z,7.48
2017-05-03T04:20:50.232Z,7.48
2017-05-03T04:21:30.610Z,7.39
2017-05-03T04:22:11.000Z,7.47
2017-05-03T04:22:51.434Z,7.47
2017-05-03T04:23:33.665Z,7.47
2017-05-03T04:24:14.949Z,7.48
2017-05-03T04:24:55.348Z,7.51
2017-05-03T04:25:39.529Z,7.56
2017-05-03T04:26:19.929Z,7.61
2017-05-03T04:27:02.224Z,7.61
2017-05-03T04:27:42.607Z,7.58
2017-05-03T04:28:24.642Z,7.62
2017-05-03T04:29:05.093Z,7.67
2017-05-03T04:29:45.513Z,7.61
2017-05-03T04:30:25.912Z,7.66
2017-05-03T04:31:06.344Z,7.64
2017-05-03T04:31:46.772Z,7.59
2017-05-03T04:32:28.689Z,7.66
2017-05-03T04:33:14.069Z,7.59
2017-05-03T04:33:54.467Z,7.64
2017-05-03T04:34:34.868Z,7.64
2017-05-03T04:35:15.262Z,7.74
2017-05-03T04:35:58.188Z,7.74
2017-05-03T04:36:41.608Z,7.72
2017-05-03T04:37:24.881Z,7.75
2017-05-03T04:38:14.101Z,7.67
2017-05-03T04:38:54.565Z,7.75
2017-05-03T04:39:35.006Z,7.72
2017-05-03T04:40:15.396Z,7.83
2017-05-03T04:40:55.811Z,7.77
2017-05-03T04:41:36.203Z,7.77
2017-05-03T04:42:16.604Z,7.74
2017-05-03T04:43:00.388Z,7.67
2017-05-03T04:43:42.411Z,7.75
2017-05-03T04:44:22.802Z,7.83
2017-05-03T04:45:03.179Z,7.81
2017-05-03T04:45:45.377Z,7.78
2017-05-03T04:46:25.776Z,7.67
2017-05-03T04:47:09.883Z,7.67
2017-05-03T04:47:51.967Z,7.74
2017-05-03T04:48:32.397Z,7.78
2017-05-03T04:49:13.824Z,7.78
2017-05-03T04:49:54.156Z,7.85
2017-05-03T04:50:37.400Z,7.77
2017-05-03T04:51:19.333Z,7.84
2017-05-03T04:52:02.476Z,7.83
2017-05-03T04:52:47.595Z,7.85
2017-05-03T04:53:29.735Z,7.85
2017-05-03T04:54:12.968Z,7.85
2017-05-03T04:54:53.332Z,7.77
2017-05-03T04:55:38.361Z,7.83
2017-05-03T04:56:18.758Z,7.87
2017-05-03T04:57:00.697Z,7.87
2017-05-03T04:57:41.106Z,7.88
2017-05-03T04:58:21.497Z,7.85
2017-05-03T04:59:03.673Z,7.87
2017-05-03T04:59:44.055Z,7.87
2017-05-03T05:00:26.114Z,7.85
2017-05-03T05:01:06.624Z,7.84
2017-05-03T05:01:51.385Z,7.87
2017-05-03T05:02:36.411Z,7.85
2017-05-03T05:03:16.873Z,7.85
2017-05-03T05:03:57.296Z,7.85
2017-05-03T05:04:39.221Z,7.74
2017-05-03T05:05:19.680Z,7.88
2017-05-03T05:06:00.046Z,7.83
2017-05-03T05:06:40.474Z,7.84
2017-05-03T05:07:21.101Z,7.88
2017-05-03T05:08:01.293Z,7.83
2017-05-03T05:08:41.705Z,7.88
2017-05-03T05:09:22.075Z,7.88
2017-05-03T05:10:02.495Z,7.87
2017-05-03T05:10:42.906Z,7.84
2017-05-03T05:11:23.294Z,7.93
2017-05-03T05:12:03.910Z,7.96
2017-05-03T05:12:44.255Z,7.9
2017-05-03T05:13:24.765Z,7.91
2017-05-03T05:14:05.133Z,8.01
2017-05-03T05:14:45.568Z,7.93
2017-05-03T05:15:25.987Z,8.02
2017-05-03T05:16:06.375Z,8.09
2017-05-03T05:16:48.564Z,8.05
2017-05-03T05:17:29.888Z,8.13
2017-05-03T05:18:10.305Z,8.13
2017-05-03T05:18:52.612Z,8.13
2017-05-03T05:19:33.950Z,8.08
2017-05-03T05:20:19.115Z,8.17
2017-05-03T05:20:59.472Z,8.16
2017-05-03T05:21:42.731Z,8.21
2017-05-03T05:22:23.125Z,8.23
2017-05-03T05:23:03.501Z,8.2
2017-05-03T05:23:47.440Z,8.31
2017-05-03T05:24:27.847Z,8.31
2017-05-03T05:25:08.272Z,8.34
2017-05-03T05:25:48.680Z,8.28
2017-05-03T05:26:33.638Z,8.45
2017-05-03T05:27:16.088Z,8.44
2017-05-03T05:27:56.408Z,8.42
2017-05-03T05:28:36.877Z,8.46
2017-05-03T05:29:17.264Z,8.54
2017-05-03T05:29:59.374Z,8.57
2017-05-03T05:30:41.560Z,8.66
2017-05-03T05:31:21.982Z,8.68
2017-05-03T05:32:04.954Z,8.68
2017-05-03T05:32:45.458Z,8.71
2017-05-03T05:33:25.894Z,8.75
2017-05-03T05:34:07.933Z,8.79
2017-05-03T05:34:48.332Z,8.75
2017-05-03T05:35:32.574Z,8.84
2017-05-03T05:36:12.946Z,8.87
2017-05-03T05:36:53.312Z,8.86
2017-05-03T05:37:33.763Z,8.81
2017-05-03T05:38:14.203Z,8.89
2017-05-03T05:38:54.595Z,8.87
2017-05-03T05:39:35.008Z,8.99
2017-05-03T05:40:18.074Z,8.96
2017-05-03T05:40:58.477Z,8.99
2017-05-03T05:41:38.832Z,8.99
2017-05-03T05:42:20.223Z,9.11
2017-05-03T05:43:00.657Z,9.03
2017-05-03T05:43:41.035Z,9.11
2017-05-03T05:44:21.451Z,9.18
2017-05-03T05:45:01.851Z,9.15
2017-05-03T05:45:42.297Z,9.18
2017-05-03T05:46:24.537Z,9.18
2017-05-03T05:47:05.010Z,9.24
2017-05-03T05:47:45.428Z,9.29
2017-05-03T05:48:25.816Z,9.33
2017-05-03T05:49:08.097Z,9.31
2017-05-03T05:49:48.466Z,9.36
2017-05-03T05:50:28.907Z,9.37
2017-05-03T05:51:10.983Z,9.39
2017-05-03T05:51:51.361Z,9.4
2017-05-03T05:52:33.648Z,9.34
2017-05-03T05:53:16.977Z,9.47
2017-05-03T05:53:57.395Z,9.47
2017-05-03T05:54:37.749Z,9.47
2017-05-03T05:55:19.987Z,9.56
2017-05-03T05:56:00.402Z,9.44
2017-05-03T05:56:40.791Z,9.4
2017-05-03T05:57:23.032Z,9.51
2017-05-03T05:58:03.466Z,9.44
2017-05-03T05:58:43.895Z,9.4
2017-05-03T05:59:26.203Z,9.31
2017-05-03T06:00:06.646Z,9.42
2017-05-03T06:00:47.079Z,9.3
2017-05-03T06:01:29.437Z,9.4
2017-05-03T06:02:09.901Z,9.42
2017-05-03T06:02:50.268Z,9.37
2017-05-03T06:03:30.745Z,9.33
2017-05-03T06:04:11.157Z,9.29
2017-05-03T06:04:51.534Z,9.36
2017-05-03T06:05:31.935Z,9.24
2017-05-03T06:06:16.114Z,9.26
2017-05-03T06:06:59.514Z,9.24
2017-05-03T06:07:39.963Z,9.22
2017-05-03T06:08:20.408Z,9.21
2017-05-03T06:09:00.833Z,9.18
2017-05-03T06:09:41.266Z,9.27
2017-05-03T06:10:21.906Z,9.22
2017-05-03T06:11:05.577Z,9.22
2017-05-03T06:11:46.006Z,9.18
2017-05-03T06:12:26.714Z,9.21
2017-05-03T06:13:08.060Z,9.18
2017-05-03T06:13:51.391Z,9.18
2017-05-03T06:14:35.562Z,9.18
2017-05-03T06:15:15.941Z,9.24
2017-05-03T06:15:56.395Z,9.24
2017-05-03T06:16:36.805Z,9.16
2017-05-03T06:17:17.216Z,9.19
2017-05-03T06:17:57.650Z,9.22
2017-05-03T06:18:40.050Z,9.22
2017-05-03T06:19:24.134Z,9.29
2017-05-03T06:20:04.511Z,9.22
2017-05-03T06:20:45.000Z,9.22
2017-05-03T06:21:27.191Z,9.27
2017-05-03T06:22:07.657Z,9.22
2017-05-03T06:22:51.169Z,9.22
2017-05-03T06:23:31.597Z,9.31
2017-05-03T06:24:13.063Z,9.22
2017-05-03T06:24:53.525Z,9.27
2017-05-03T06:25:33.928Z,9.26
2017-05-03T06:26:14.304Z,9.27
2017-05-03T06:26:54.729Z,9.16
2017-05-03T06:27:37.624Z,9.27
2017-05-03T06:28:18.009Z,9.18
2017-05-03T06:28:58.443Z,9.29
2017-05-03T06:29:41.590Z,9.24
2017-05-03T06:30:24.008Z,9.19
2017-05-03T06:31:07.131Z,9.26
2017-05-03T06:31:49.063Z,9.22
2017-05-03T06:32:29.500Z,9.19
2017-05-03T06:33:11.726Z,9.26
2017-05-03T06:33:52.157Z,9.19
2017-05-03T06:34:32.588Z,9.26
2017-05-03T06:35:14.560Z,9.16
2017-05-03T06:35:54.965Z,9.27
2017-05-03T06:36:35.354Z,9.29
2017-05-03T06:37:15.800Z,9.19
2017-05-03T06:37:56.206Z,9.19
2017-05-03T06:38:36.595Z,9.22
2017-05-03T06:39:17.023Z,9.18
2017-05-03T06:39:59.087Z,9.15
2017-05-03T06:40:39.509Z,9.11
2017-05-03T06:41:19.928Z,9.13
2017-05-03T06:42:00.412Z,9.03
2017-05-03T06:42:40.854Z,9.03
2017-05-03T06:43:21.273Z,9.08
2017-05-03T06:44:01.698Z,9.05
2017-05-03T06:44:42.154Z,9.09
2017-05-03T06:45:24.507Z,9.02
2017-05-03T06:46:07.515Z,9.05
2017-05-03T06:46:47.922Z,9.05
2017-05-03T06:47:28.362Z,9.08
2017-05-03T06:48:08.725Z,9
2017-05-03T06:48:49.713Z,9.05
2017-05-03T06:49:31.750Z,9.09
2017-05-03T06:50:12.144Z,9.09
2017-05-03T06:50:54.161Z,9.09
2017-05-03T06:51:36.210Z,9.16
2017-05-03T06:52:16.561Z,9.05
2017-05-03T06:52:57.042Z,9.15
2017-05-03T06:53:37.480Z,9.18
2017-05-03T06:54:19.606Z,9.15
2017-05-03T06:55:00.027Z,9.19
2017-05-03T06:55:42.083Z,9.21
2017-05-03T06:56:22.498Z,9.31
2017-05-03T06:57:05.501Z,9.26
2017-05-03T06:57:49.491Z,9.33
2017-05-03T06:58:29.933Z,9.39
2017-05-03T06:59:11.897Z,9.37
2017-05-03T06:59:54.325Z,9.37
2017-05-03T07:00:34.735Z,9.4
2017-05-03T07:01:15.133Z,9.34
2017-05-03T07:01:57.491Z,9.3
2017-05-03T07:02:39.974Z,9.36
2017-05-03T07:03:20.303Z,9.31
2017-05-03T07:04:02.552Z,9.36
2017-05-03T07:04:42.918Z,9.34
2017-05-03T07:05:23.335Z,9.33
2017-05-03T07:06:06.502Z,9.39
2017-05-03T07:06:48.752Z,9.37
2017-05-03T07:07:30.730Z,9.39
2017-05-03T07:08:13.088Z,9.3
2017-05-03T07:08:55.471Z,9.27
2017-05-03T07:09:37.721Z,9.31
2017-05-03T07:10:19.021Z,9.27
2017-05-03T07:10:59.507Z,9.3
2017-05-03T07:11:41.480Z,9.29
2017-05-03T07:12:22.868Z,9.3
2017-05-03T07:13:03.274Z,9.33
2017-05-03T07:13:43.629Z,9.31
2017-05-03T07:14:24.943Z,9.31
2017-05-03T07:15:05.388Z,9.36
2017-05-03T07:15:45.855Z,9.36
2017-05-03T07:16:28.154Z,9.45
2017-05-03T07:17:08.520Z,9.47
2017-05-03T07:17:48.936Z,9.48
2017-05-03T07:18:29.361Z,9.52
2017-05-03T07:19:09.770Z,9.56
2017-05-03T07:19:51.708Z,9.66
2017-05-03T07:20:32.255Z,9.64
2017-05-03T07:21:12.677Z,9.64
2017-05-03T07:21:53.076Z,9.66
2017-05-03T07:22:37.097Z,9.72
2017-05-03T07:23:19.454Z,9.77
2017-05-03T07:23:59.865Z,9.8
2017-05-03T07:24:42.317Z,9.81
2017-05-03T07:25:22.726Z,9.85
2017-05-03T07:26:04.076Z,9.81
2017-05-03T07:26:46.003Z,9.77
2017-05-03T07:27:27.325Z,9.77
2017-05-03T07:28:07.755Z,9.82
2017-05-03T07:28:48.162Z,9.82
2017-05-03T07:29:32.433Z,9.8
2017-05-03T07:30:16.656Z,9.74
2017-05-03T07:31:00.920Z,9.67
2017-05-03T07:31:44.011Z,9.72
2017-05-03T07:32:25.423Z,9.74
2017-05-03T07:33:05.817Z,9.64
2017-05-03T07:33:49.934Z,9.72
2017-05-03T07:34:30.319Z,9.64
2017-05-03T07:35:13.463Z,9.67
2017-05-03T07:37:33.441Z,9.63
2017-05-03T07:38:21.530Z,9.8
2017-05-03T07:41:14.360Z,9.91
2017-05-03T07:43:04.651Z,9.92
2017-05-03T07:45:27.762Z,10.05
2017-05-03T07:48:20.447Z,9.97
2017-05-03T07:54:24.402Z,9.72
2017-05-03T07:55:13.710Z,9.82
2017-05-03T07:56:02.042Z,9.94
2017-05-03T07:56:50.336Z,9.74
2017-05-03T07:57:39.268Z,9.8
2017-05-03T07:58:28.108Z,9.74
2017-05-03T07:59:16.416Z,9.72
2017-05-03T08:00:03.375Z,9.63
2017-05-03T08:00:52.571Z,9.66
2017-05-03T08:01:40.683Z,9.58
2017-05-03T08:02:29.302Z,9.55
2017-05-03T08:03:18.000Z,9.51
2017-05-03T08:04:04.465Z,9.64
2017-05-03T08:04:44.720Z,9.59
2017-05-03T08:05:25.152Z,9.67
2017-05-03T08:06:05.503Z,9.73
2017-05-03T08:06:45.956Z,9.72
2017-05-03T08:07:26.343Z,9.63
2017-05-03T08:08:06.753Z,9.72
2017-05-03T08:08:48.737Z,9.81
2017-05-03T08:09:36.035Z,9.82
2017-05-03T08:10:16.376Z,9.88
2017-05-03T08:11:01.821Z,9.91
2017-05-03T08:11:42.201Z,9.99
2017-05-03T08:12:22.644Z,9.87
2017-05-03T08:13:03.092Z,9.9
2017-05-03T08:13:43.482Z,10
2017-05-03T08:14:23.905Z,10
2017-05-03T08:15:06.004Z,9.94
2017-05-03T08:15:46.419Z,10
2017-05-03T08:16:27.722Z,9.94
2017-05-03T08:17:09.586Z,9.9
2017-05-03T08:17:51.348Z,9.82
2017-05-03T08:18:32.327Z,9.95
2017-05-03T08:19:12.763Z,9.91
2017-05-03T08:19:53.829Z,9.91
2017-05-03T08:20:34.258Z,9.76
2017-05-03T08:21:15.351Z,9.76
2017-05-03T08:21:55.733Z,9.73
2017-05-03T08:22:37.059Z,9.67
2017-05-03T08:23:17.527Z,9.69
2017-05-03T08:23:59.508Z,9.64
2017-05-03T08:24:39.994Z,9.64
2017-05-03T08:25:21.054Z,9.63
2017-05-03T08:26:02.119Z,9.69
2017-05-03T08:26:43.146Z,9.58
2017-05-03T08:27:24.296Z,9.72
2017-05-03T08:28:07.321Z,9.67
2017-05-03T08:28:47.669Z,9.7
2017-05-03T08:29:28.799Z,9.7
2017-05-03T08:30:09.169Z,9.63
2017-05-03T08:30:50.522Z,9.8
2017-05-03T08:31:31.693Z,9.74
2017-05-03T08:32:12.829Z,9.76
2017-05-03T08:32:55.032Z,9.74
2017-05-03T08:33:36.348Z,9.77
2017-05-03T08:34:16.788Z,9.81
2017-05-03T08:34:58.040Z,9.77
2017-05-03T08:35:40.339Z,9.73
2017-05-03T08:36:21.637Z,9.73
2017-05-03T08:37:02.638Z,9.85
2017-05-03T08:37:42.991Z,9.85
2017-05-03T08:38:23.445Z,9.88
2017-05-03T08:39:04.390Z,9.97
2017-05-03T08:39:44.775Z,9.92
2017-05-03T08:40:38.382Z,10
2017-05-03T08:41:19.651Z,10.07
2017-05-03T08:42:05.025Z,10.06
2017-05-03T08:42:51.382Z,10.09
2017-05-03T08:43:31.918Z,10.12
2017-05-03T08:44:12.356Z,10.1
2017-05-03T08:46:23.491Z,10.31
2017-05-03T08:47:12.313Z,10.31
2017-05-03T08:48:01.020Z,10.21
2017-05-03T08:48:49.436Z,10.21
2017-05-03T08:49:38.138Z,10.23
2017-05-03T08:50:26.769Z,10.28
2017-05-03T08:51:15.526Z,10.34
2017-05-03T08:52:03.890Z,10.24
2017-05-03T08:52:52.557Z,10.31
2017-05-03T08:53:41.570Z,10.3
2017-05-03T08:54:29.823Z,10.3
2017-05-03T08:55:18.953Z,10.43
2017-05-03T08:56:07.727Z,10.43
2017-05-03T08:56:56.312Z,10.45
2017-05-03T08:57:45.189Z,10.51
2017-05-03T08:58:33.689Z,10.42
2017-05-03T08:59:22.612Z,10.46
2017-05-03T09:00:11.307Z,10.42
2017-05-03T09:01:00.087Z,10.45
2017-05-03T09:01:48.649Z,10.43
2017-05-03T09:02:37.117Z,10.43
2017-05-03T09:03:25.692Z,10.33
2017-05-03T09:04:14.448Z,10.31
2017-05-03T09:05:03.320Z,10.36
2017-05-03T09:05:52.011Z,10.21
2017-05-03T09:06:40.650Z,10.15
2017-05-03T09:07:29.098Z,10.15
2017-05-03T09:08:17.933Z,10.13
2017-05-03T09:09:06.308Z,10.13
2017-05-03T09:09:55.103Z,10.09
2017-05-03T09:10:43.606Z,10.12
2017-05-03T09:11:32.304Z,10.12
2017-05-03T09:12:20.724Z,10.02
2017-05-03T09:13:09.569Z,10.05
2017-05-03T09:13:58.013Z,10.07
2017-05-03T09:14:46.980Z,10.15
2017-05-03T09:15:35.209Z,10.28
2017-05-03T09:16:23.650Z,10.27
2017-05-03T09:17:12.634Z,10.33
2017-05-03T09:18:01.532Z,10.41
2017-05-03T09:18:49.760Z,10.46
2017-05-03T09:19:38.517Z,10.41
2017-05-03T09:20:27.108Z,10.3
2017-05-03T09:21:16.063Z,10.42
2017-05-03T09:22:02.081Z,10.45
2017-05-03T09:22:43.903Z,10.39
2017-05-03T09:23:25.082Z,10.42
2017-05-03T09:24:06.449Z,10.46
2017-05-03T09:24:50.487Z,10.51
2017-05-03T09:25:31.694Z,10.46
2017-05-03T09:26:14.055Z,10.33
2017-05-03T09:26:55.441Z,10.46
2017-05-03T09:27:36.518Z,10.57
2017-05-03T09:28:17.028Z,10.46
2017-05-03T09:28:57.451Z,10.53
2017-05-03T09:29:37.855Z,10.53
2017-05-03T09:30:18.253Z,10.55
2017-05-03T09:30:58.677Z,10.57
2017-05-03T09:31:39.653Z,10.62
2017-05-03T09:32:20.150Z,10.59
2017-05-03T09:33:01.512Z,10.68
2017-05-03T09:33:42.505Z,10.75
2017-05-03T09:34:22.959Z,10.71
2017-05-03T09:35:04.054Z,10.69
2017-05-03T09:35:44.451Z,10.65
2017-05-03T09:36:24.880Z,10.72
2017-05-03T09:37:06.369Z,10.68
2017-05-03T09:37:47.441Z,10.75
2017-05-03T09:38:30.467Z,10.82
2017-05-03T09:39:11.499Z,10.86
2017-05-03T09:39:52.731Z,10.95
2017-05-03T09:40:37.080Z,10.97
2017-05-03T09:41:19.027Z,11
2017-05-03T09:41:59.442Z,11.08
2017-05-03T09:42:40.505Z,11.08
2017-05-03T09:43:21.686Z,11.08
2017-05-03T09:44:02.702Z,11.19
2017-05-03T09:44:43.133Z,11.18